Time;durP1;ratioP1;P1;durP2;ratioP2;P2;SDS_P1;SDS_P2;PMS_P1;PMS_P2;Temp;Humidity;BMP_temperature;BMP_pressure;BME280_temperature;BME280_humidity;BME280_pressure;Samples;Min_cycle;Max_cycle;Signal;HPM_P1;HPM_P2
2021/06/08 00:00:13;;;;;;;8.48;7.78;;;;;;;21.48;54.92;102211.88;6094650;28;20228;-53
2021/06/08 00:03:34;;;;;;;7.90;7.20;;;;;;;21.33;55.09;102206.13;6088032;28;20601;-55
2021/06/08 00:06:55;;;;;;;7.90;7.13;;;;;;;21.45;54.62;102201.38;6083915;28;20504;-54
2021/06/08 00:10:16;;;;;;;7.13;6.50;;;;;;;21.28;53.79;102202.75;6093836;28;20323;-55
2021/06/08 00:13:37;;;;;;;6.53;6.03;;;;;;;21.08;53.67;102202.53;6094455;28;20236;-54
2021/06/08 00:16:58;;;;;;;6.63;6.13;;;;;;;20.96;53.04;102202.00;6090134;28;20717;-50
2021/06/08 00:20:18;;;;;;;5.25;4.85;;;;;;;21.12;52.64;102199.72;6090425;28;20231;-51
2021/06/08 00:23:40;;;;;;;6.15;5.75;;;;;;;21.06;52.84;102199.06;6089720;28;20259;-50
2021/06/08 00:27:01;;;;;;;6.00;5.50;;;;;;;21.13;52.90;102208.53;6090969;28;20236;-54
2021/06/08 00:30:23;;;;;;;7.05;6.40;;;;;;;21.20;52.53;102200.34;6090899;28;20232;-55
2021/06/08 00:33:43;;;;;;;6.55;6.15;;;;;;;21.05;52.30;102192.88;6093235;28;20296;-47
2021/06/08 00:37:04;;;;;;;6.40;5.85;;;;;;;21.15;52.62;102199.63;6090649;28;20244;-52
2021/06/08 00:40:27;;;;;;;6.28;5.85;;;;;;;20.99;52.63;102201.00;6088429;28;20232;-53
2021/06/08 00:43:47;;;;;;;6.50;6.10;;;;;;;21.10;52.00;102193.59;6089403;28;20556;-53
2021/06/08 00:47:08;;;;;;;6.38;5.88;;;;;;;21.27;51.66;102194.84;6092448;28;20240;-52
2021/06/08 00:50:28;;;;;;;6.80;6.32;;;;;;;21.26;51.45;102196.63;6091327;28;20264;-54
2021/06/08 00:53:48;;;;;;;5.93;5.43;;;;;;;21.01;52.07;102192.13;6090236;28;20232;-50
2021/06/08 00:57:10;;;;;;;6.93;6.22;;;;;;;21.08;52.60;102191.94;6091870;28;20244;-50
2021/06/08 01:00:30;;;;;;;6.55;5.93;;;;;;;21.08;52.97;102189.28;6093538;28;20244;-53
2021/06/08 01:03:51;;;;;;;7.60;7.00;;;;;;;21.21;52.80;102187.97;6094232;28;20678;-49
2021/06/08 01:07:12;;;;;;;7.20;6.60;;;;;;;20.94;54.08;102189.72;6097230;28;20236;-51
2021/06/08 01:10:32;;;;;;;7.35;6.85;;;;;;;20.65;55.25;102186.16;6093080;28;20233;-49
2021/06/08 01:13:54;;;;;;;8.30;7.60;;;;;;;20.89;54.96;102184.53;6086895;28;20968;-52
2021/06/08 01:17:14;;;;;;;7.90;7.28;;;;;;;20.76;55.55;102188.47;6096106;28;20232;-50
2021/06/08 01:20:35;;;;;;;7.72;7.15;;;;;;;20.73;55.72;102188.59;6096293;28;20241;-51
2021/06/08 01:23:57;;;;;;;8.63;7.82;;;;;;;20.69;55.95;102186.94;6097082;28;20762;-49
2021/06/08 01:27:19;;;;;;;8.48;7.78;;;;;;;20.73;55.55;102192.09;6089622;28;20232;-51
2021/06/08 01:30:39;;;;;;;7.75;7.25;;;;;;;20.75;55.66;102189.41;6096593;28;20240;-55
2021/06/08 01:34:01;;;;;;;7.57;6.97;;;;;;;20.67;55.83;102191.41;6088943;28;20237;-52
2021/06/08 01:37:21;;;;;;;8.40;7.80;;;;;;;20.61;56.32;102193.31;6094998;28;20240;-55
2021/06/08 01:40:45;;;;;;;8.32;7.72;;;;;;;20.54;56.39;102194.38;6094569;28;20236;-52
2021/06/08 01:44:06;;;;;;;7.90;7.20;;;;;;;20.43;56.82;102192.06;6090131;28;20240;-51
2021/06/08 01:47:26;;;;;;;9.25;8.55;;;;;;;20.52;56.42;102185.63;6096450;28;20516;-52
2021/06/08 01:50:49;;;;;;;7.72;7.03;;;;;;;20.60;56.53;102188.94;6095301;28;20232;-49
2021/06/08 01:54:17;;;;;;;8.55;7.75;;;;;;;20.52;56.80;102188.25;6093740;28;20327;-51
2021/06/08 01:57:42;;;;;;;8.25;7.60;;;;;;;20.44;57.25;102187.63;6092638;28;20610;-52
2021/06/08 02:01:11;;;;;;;8.50;7.90;;;;;;;20.23;57.90;102189.94;6086824;28;20256;-50
2021/06/08 02:04:41;;;;;;;8.35;7.65;;;;;;;20.25;57.73;102193.41;6094042;28;20554;-51
2021/06/08 02:08:17;;;;;;;8.77;8.18;;;;;;;20.11;58.20;102189.44;6093410;28;20306;-51
2021/06/08 02:11:46;;;;;;;7.28;6.82;;;;;;;20.16;58.01;102199.00;6095498;28;20233;-56
2021/06/08 02:15:11;;;;;;;8.70;7.78;;;;;;;20.19;58.18;102203.31;6080126;28;20757;-52
2021/06/08 02:18:35;;;;;;;9.02;8.32;;;;;;;20.24;58.01;102207.56;6088724;28;20609;-53
2021/06/08 02:22:01;;;;;;;8.65;7.95;;;;;;;20.22;58.20;102209.38;6089809;28;20276;-51
2021/06/08 02:25:25;;;;;;;8.75;7.88;;;;;;;20.20;58.16;102211.22;6085197;28;20322;-53
2021/06/08 02:28:46;;;;;;;9.25;8.55;;;;;;;20.09;58.74;102202.69;6091219;28;20236;-50
2021/06/08 02:32:09;;;;;;;7.97;7.28;;;;;;;20.13;58.47;102214.91;6087896;28;21617;-53
2021/06/08 02:35:31;;;;;;;8.02;7.43;;;;;;;20.04;58.90;102220.44;6088161;28;20602;-54
2021/06/08 02:38:55;;;;;;;8.27;7.68;;;;;;;20.07;58.69;102220.38;6092994;28;20236;-53
2021/06/08 02:42:18;;;;;;;6.95;6.43;;;;;;;20.22;58.23;102214.69;6095652;28;20261;-54
2021/06/08 02:45:41;;;;;;;8.40;7.65;;;;;;;19.82;59.55;102220.16;6091565;28;20236;-52
2021/06/08 02:49:03;;;;;;;7.93;7.22;;;;;;;19.89;59.42;102220.84;6084583;28;20225;-48
2021/06/08 02:52:24;;;;;;;8.88;8.07;;;;;;;19.82;59.39;102221.00;6091798;28;20229;-55
2021/06/08 02:55:46;;;;;;;8.02;7.38;;;;;;;19.94;59.29;102222.47;6093358;28;20248;-55
2021/06/08 02:59:08;;;;;;;16.25;14.85;;;;;;;19.78;59.97;102224.66;6090434;28;20346;-53
2021/06/08 03:02:31;;;;;;;12.85;11.88;;;;;;;19.70;59.87;102221.31;6088949;28;20259;-52
2021/06/08 03:06:00;;;;;;;11.93;10.80;;;;;;;19.72;60.11;102222.16;6086875;28;20500;-52
2021/06/08 03:09:28;;;;;;;24.05;22.17;;;;;;;19.96;59.26;102222.44;6092740;28;20239;-51
2021/06/08 03:12:54;;;;;;;12.27;11.27;;;;;;;19.83;59.55;102221.88;6092116;28;20264;-53
2021/06/08 03:16:17;;;;;;;7.70;7.03;;;;;;;19.85;59.52;102215.66;6106809;28;20251;-51
2021/06/08 03:19:41;;;;;;;8.02;7.43;;;;;;;19.84;59.47;102219.19;6087274;28;20319;-50
2021/06/08 03:23:07;;;;;;;7.20;6.60;;;;;;;19.94;59.21;102213.69;6089216;28;20240;-49
2021/06/08 03:26:31;;;;;;;9.35;8.45;;;;;;;19.98;59.10;102210.03;6093448;28;20236;-50
2021/06/08 03:29:54;;;;;;;8.55;7.82;;;;;;;19.93;59.25;102211.94;6088580;28;20495;-52
2021/06/08 03:33:16;;;;;;;7.13;6.63;;;;;;;19.84;59.14;102213.91;6089629;28;20236;-52
2021/06/08 03:36:37;;;;;;;8.23;7.63;;;;;;;19.90;58.85;102212.03;6092909;28;20236;-55
2021/06/08 03:40:00;;;;;;;7.38;6.20;;;;;;;19.89;58.98;102218.19;6089805;28;20235;-51
2021/06/08 03:43:21;;;;;;;7.63;7.03;;;;;;;20.08;58.02;102218.59;6068144;28;20319;-49
2021/06/08 03:46:41;;;;;;;8.45;7.30;;;;;;;20.13;57.76;102220.22;6088758;28;20236;-52
2021/06/08 03:50:04;;;;;;;7.43;6.82;;;;;;;20.07;58.44;102220.38;6089884;28;20247;-51
2021/06/08 03:53:25;;;;;;;7.03;6.43;;;;;;;19.99;59.10;102225.00;6090354;28;20220;-53
2021/06/08 03:56:50;;;;;;;8.27;7.47;;;;;;;19.83;58.97;102214.84;6092285;28;20237;-53
2021/06/08 04:00:11;;;;;;;7.07;6.47;;;;;;;19.74;59.21;102212.41;6087039;28;20491;-50
2021/06/08 04:03:36;;;;;;;7.18;6.65;;;;;;;19.85;59.10;102220.94;6086948;28;20228;-52
2021/06/08 04:06:56;;;;;;;7.05;6.50;;;;;;;20.02;58.50;102222.28;6082964;28;20232;-50
2021/06/08 04:10:19;;;;;;;6.63;6.13;;;;;;;20.05;58.44;102222.19;6086993;28;20251;-52
2021/06/08 04:13:42;;;;;;;7.43;6.93;;;;;;;20.01;58.79;102216.13;6090218;28;20232;-53
2021/06/08 04:17:04;;;;;;;7.35;6.75;;;;;;;19.98;58.86;102215.34;6093767;28;20236;-48
2021/06/08 04:20:27;;;;;;;8.45;7.68;;;;;;;19.99;58.55;102217.94;6084202;28;20221;-50
2021/06/08 04:23:55;;;;;;;8.25;6.82;;;;;;;19.80;58.82;102217.53;6087720;28;20489;-53
2021/06/08 04:27:21;;;;;;;7.32;6.63;;;;;;;19.90;58.61;102214.66;6093253;28;20578;-54
2021/06/08 04:30:45;;;;;;;7.10;6.50;;;;;;;20.15;57.82;102221.03;6086034;28;20259;-55
2021/06/08 04:34:06;;;;;;;9.52;7.03;;;;;;;20.17;58.15;102223.66;6092728;28;20232;-51
2021/06/08 04:37:26;;;;;;;6.63;6.13;;;;;;;20.20;57.60;102216.50;6096692;28;20287;-52
2021/06/08 04:40:48;;;;;;;6.38;5.88;;;;;;;20.02;58.23;102212.56;6091470;28;20622;-53
2021/06/08 04:44:08;;;;;;;6.80;6.28;;;;;;;19.93;58.46;102219.84;6100464;28;20240;-51
2021/06/08 04:47:30;;;;;;;6.38;5.95;;;;;;;19.79;58.67;102221.13;6086129;28;20599;-54
2021/06/08 04:50:51;;;;;;;5.47;5.07;;;;;;;20.08;57.81;102219.47;6092672;28;20233;-55
2021/06/08 04:54:12;;;;;;;8.68;6.00;;;;;;;20.23;57.47;102226.13;6092322;28;20228;-55
2021/06/08 04:57:34;;;;;;;7.75;7.05;;;;;;;20.13;57.65;102228.16;6090469;28;20236;-55
2021/06/08 05:01:00;;;;;;;6.05;5.65;;;;;;;20.04;57.89;102226.59;6088109;28;20311;-53
2021/06/08 05:04:26;;;;;;;7.57;6.07;;;;;;;20.09;57.66;102223.84;6089665;28;20244;-48
2021/06/08 05:07:52;;;;;;;6.78;5.47;;;;;;;20.07;57.81;102228.31;6095515;28;20335;-48
2021/06/08 05:11:15;;;;;;;6.03;5.53;;;;;;;20.19;57.50;102230.63;6093585;28;20232;-51
2021/06/08 05:14:38;;;;;;;6.90;6.35;;;;;;;20.04;57.97;102233.66;6086598;28;20237;-50
2021/06/08 05:17:59;;;;;;;7.78;6.35;;;;;;;20.31;57.52;102228.56;6088140;28;20232;-51
2021/06/08 05:21:23;;;;;;;6.82;6.32;;;;;;;20.36;56.95;102232.81;6097384;28;20386;-51
2021/06/08 05:24:46;;;;;;;6.63;5.95;;;;;;;20.11;57.67;102237.91;6092942;28;20248;-50
2021/06/08 05:28:07;;;;;;;6.47;5.85;;;;;;;20.21;57.50;102236.72;6083215;28;20265;-52
2021/06/08 05:31:42;;;;;;;6.40;5.80;;;;;;;20.57;56.50;102236.63;6066289;28;20240;-58
2021/06/08 05:35:04;;;;;;;6.35;5.78;;;;;;;20.55;56.69;102242.88;6090389;28;20236;-58
2021/06/08 05:38:33;;;;;;;11.48;7.00;;;;;;;20.57;56.96;102244.56;6082105;28;20229;-58
2021/06/08 05:41:53;;;;;;;5.97;5.47;;;;;;;20.83;56.46;102242.97;6081551;28;20231;-57
2021/06/08 05:45:14;;;;;;;6.72;6.05;;;;;;;21.13;54.84;102237.66;6083038;28;20918;-56
2021/06/08 05:48:36;;;;;;;6.35;5.63;;;;;;;21.31;54.38;102245.06;6090530;28;20228;-55
2021/06/08 05:51:58;;;;;;;7.10;6.50;;;;;;;20.65;55.93;102236.47;6091421;28;20233;-57
2021/06/08 05:55:23;;;;;;;5.95;5.55;;;;;;;21.10;55.40;102245.72;6088102;28;20785;-56
2021/06/08 05:58:45;;;;;;;6.55;6.05;;;;;;;21.10;55.28;102246.56;6084633;28;20559;-58
2021/06/08 06:02:06;;;;;;;7.50;6.78;;;;;;;20.94;55.75;102246.19;6083114;28;20690;-59
2021/06/08 06:05:27;;;;;;;8.75;7.95;;;;;;;21.24;54.41;102246.16;6091349;28;20674;-59
2021/06/08 06:08:47;;;;;;;8.35;7.55;;;;;;;21.57;53.68;102251.31;6087909;28;20587;-59
2021/06/08 06:12:11;;;;;;;8.43;6.50;;;;;;;21.19;55.18;102253.34;6091125;28;20239;-60
2021/06/08 06:15:33;;;;;;;6.70;6.20;;;;;;;21.17;54.97;102264.03;6080343;28;20249;-58
2021/06/08 06:18:54;;;;;;;6.90;6.40;;;;;;;21.22;55.26;102255.94;6079609;28;20241;-59
2021/06/08 06:22:15;;;;;;;8.33;5.80;;;;;;;21.63;54.38;102246.72;6083874;28;20761;-59
2021/06/08 06:25:35;;;;;;;6.20;5.72;;;;;;;21.87;53.27;102253.88;6084759;28;21122;-59
2021/06/08 06:29:00;;;;;;;5.43;4.65;;;;;;;21.91;53.88;102250.22;6083118;28;20248;-59
2021/06/08 06:32:20;;;;;;;6.05;5.55;;;;;;;22.09;53.26;102244.25;6081139;28;20244;-60
2021/06/08 06:35:41;;;;;;;5.95;5.45;;;;;;;22.00;53.14;102250.78;6083193;28;20236;-59
2021/06/08 06:39:06;;;;;;;6.20;5.60;;;;;;;22.15;52.92;102257.31;6085453;28;20702;-59
2021/06/08 06:42:30;;;;;;;6.65;6.03;;;;;;;22.49;52.16;102258.81;6089924;28;20240;-60
2021/06/08 06:45:52;;;;;;;6.78;6.18;;;;;;;22.57;51.69;102256.72;6085592;28;20241;-59
2021/06/08 06:49:13;;;;;;;6.80;5.53;;;;;;;22.66;51.29;102262.63;6087875;28;20342;-59
2021/06/08 06:52:34;;;;;;;5.63;5.13;;;;;;;22.50;51.69;102257.88;6080226;28;20237;-61
2021/06/08 06:55:55;;;;;;;5.85;5.35;;;;;;;22.59;51.80;102264.66;6083439;28;20236;-61
2021/06/08 06:59:15;;;;;;;6.53;5.88;;;;;;;21.95;53.11;102262.44;6082518;28;20798;-62
2021/06/08 07:02:40;;;;;;;6.20;5.60;;;;;;;22.31;52.79;102256.81;6083957;28;20316;-60
2021/06/08 07:06:01;;;;;;;6.07;5.57;;;;;;;22.73;51.33;102261.47;6080439;28;20244;-59
2021/06/08 07:09:24;;;;;;;6.47;5.68;;;;;;;22.86;50.97;102262.75;6088472;28;20236;-59
2021/06/08 07:12:46;;;;;;;5.50;5.10;;;;;;;22.85;51.83;102265.47;6089404;28;20578;-59
2021/06/08 07:16:06;;;;;;;6.93;6.32;;;;;;;22.08;53.21;102269.06;6077924;28;20312;-59
2021/06/08 07:19:28;;;;;;;13.35;12.07;;;;;;;22.39;52.38;102273.31;6085444;28;20248;-60
2021/06/08 07:22:50;;;;;;;7.85;7.05;;;;;;;22.79;51.80;102271.84;6087236;28;20507;-58
2021/06/08 07:26:13;;;;;;;7.80;6.18;;;;;;;22.72;51.21;102288.94;6083212;28;21987;-60
2021/06/08 07:29:34;;;;;;;6.15;5.75;;;;;;;22.48;52.44;102282.75;6078630;28;20240;-60
2021/06/08 07:33:04;;;;;;;7.13;6.05;;;;;;;23.00;50.80;102292.28;6084832;28;20232;-59
2021/06/08 07:36:34;;;;;;;10.55;9.48;;;;;;;23.16;51.16;102276.66;6069432;28;20233;-60
2021/06/08 07:40:01;;;;;;;9.75;8.50;;;;;;;22.45;52.25;102281.06;6094861;28;20232;-61
2021/06/08 07:43:24;;;;;;;5.88;5.38;;;;;;;22.61;51.91;102286.69;6065002;28;20260;-58
2021/06/08 07:46:46;;;;;;;6.03;5.47;;;;;;;22.98;51.41;102288.84;6087679;28;20240;-60
2021/06/08 07:50:09;;;;;;;5.88;5.25;;;;;;;23.28;50.15;102288.59;6084358;28;20331;-59
2021/06/08 07:53:32;;;;;;;6.90;4.97;;;;;;;23.57;49.75;102281.25;6086863;28;20236;-60
2021/06/08 07:56:52;;;;;;;7.00;5.32;;;;;;;23.44;49.62;102287.97;6087976;28;21502;-58
2021/06/08 08:00:15;;;;;;;7.72;5.82;;;;;;;23.61;48.98;102285.50;6083229;28;20755;-59
2021/06/08 08:03:38;;;;;;;5.53;4.75;;;;;;;23.93;48.36;102276.25;6083638;28;20551;-58
2021/06/08 08:06:59;;;;;;;6.22;5.80;;;;;;;23.61;48.86;102292.63;6079663;28;20299;-60
2021/06/08 08:10:23;;;;;;;10.57;5.78;;;;;;;23.75;49.05;102293.81;6073527;28;20232;-59
2021/06/08 08:13:46;;;;;;;5.30;4.68;;;;;;;24.08;47.93;102282.72;6083917;28;20256;-59
2021/06/08 08:17:06;;;;;;;5.15;4.65;;;;;;;24.37;48.42;102283.25;6079677;28;20240;-58
2021/06/08 08:20:41;;;;;;;5.68;5.28;;;;;;;24.57;47.65;102290.38;6077686;28;20240;-60
2021/06/08 08:24:01;;;;;;;5.53;5.03;;;;;;;24.77;46.82;102287.66;6078091;28;20228;-60
2021/06/08 08:27:25;;;;;;;5.75;4.60;;;;;;;24.74;47.12;102290.47;6083348;28;20268;-60
2021/06/08 08:30:46;;;;;;;5.07;4.53;;;;;;;25.13;46.20;102296.69;6083900;28;20233;-60
2021/06/08 08:34:07;;;;;;;5.80;5.40;;;;;;;25.09;46.35;102287.97;6062933;28;20646;-59
2021/06/08 08:37:27;;;;;;;5.43;4.97;;;;;;;25.48;45.26;102289.69;6081401;28;20231;-58
2021/06/08 08:40:49;;;;;;;6.47;5.32;;;;;;;25.61;44.85;102295.31;6083916;28;20353;-59
2021/06/08 08:44:10;;;;;;;5.13;4.70;;;;;;;26.01;44.48;102282.63;6080614;28;20229;-59
2021/06/08 08:47:31;;;;;;;5.30;4.20;;;;;;;25.93;44.14;102287.50;6084762;28;20258;-58
2021/06/08 08:50:51;;;;;;;4.97;4.43;;;;;;;25.49;44.97;102279.88;6085696;28;20248;-60
2021/06/08 08:54:13;;;;;;;6.50;4.45;;;;;;;25.60;45.21;102277.56;6083758;28;20761;-60
2021/06/08 08:57:34;;;;;;;4.78;4.20;;;;;;;25.29;45.11;102279.03;6081440;28;20244;-59
2021/06/08 09:00:56;;;;;;;5.43;5.03;;;;;;;25.38;45.01;102276.88;6077935;28;20244;-60
2021/06/08 09:04:19;;;;;;;4.53;4.22;;;;;;;25.29;45.72;102276.38;6085010;28;20584;-59
2021/06/08 09:07:39;;;;;;;4.22;3.92;;;;;;;25.71;43.93;102269.88;6086329;28;20232;-60
2021/06/08 09:11:00;;;;;;;4.22;3.75;;;;;;;25.25;45.09;102272.13;6088907;28;20232;-60
2021/06/08 09:14:22;;;;;;;8.73;4.63;;;;;;;25.64;44.48;102273.78;6077304;28;20229;-61
2021/06/08 09:17:44;;;;;;;4.63;4.25;;;;;;;25.72;42.36;102271.59;6081647;28;20540;-58
2021/06/08 09:21:15;;;;;;;3.33;3.03;;;;;;;26.37;42.91;102279.00;6082543;28;20232;-58
2021/06/08 09:24:36;;;;;;;3.40;3.10;;;;;;;26.84;40.25;102272.94;6091170;28;20510;-60
2021/06/08 09:28:16;;;;;;;3.72;3.42;;;;;;;26.06;40.71;102280.59;6085892;28;20256;-58
2021/06/08 09:31:36;;;;;;;14.15;4.68;;;;;;;26.57;40.34;102274.41;6085323;28;20236;-58
2021/06/08 09:34:59;;;;;;;3.03;2.63;;;;;;;27.58;38.28;102274.13;6084690;28;20327;-61
2021/06/08 09:38:20;;;;;;;3.72;2.80;;;;;;;27.56;38.49;102265.34;6089115;28;20256;-60
2021/06/08 09:41:44;;;;;;;2.92;2.53;;;;;;;27.55;38.07;102260.06;6091743;28;20252;-60
2021/06/08 09:45:12;;;;;;;3.08;2.60;;;;;;;27.65;37.14;102266.63;6091008;28;20272;-60
2021/06/08 09:48:49;;;;;;;2.53;2.42;;;;;;;27.91;37.19;102265.09;6088941;28;20783;-59
2021/06/08 09:52:11;;;;;;;2.83;2.55;;;;;;;28.02;36.76;102259.13;6082826;28;20224;-60
2021/06/08 09:55:47;;;;;;;5.10;2.65;;;;;;;27.93;35.47;102259.66;6083175;28;20236;-61
2021/06/08 09:59:08;;;;;;;3.85;3.53;;;;;;;27.61;37.07;102263.28;6088782;28;20615;-60
2021/06/08 10:02:34;;;;;;;6.00;3.78;;;;;;;28.05;37.12;102250.88;6090727;28;20237;-60
2021/06/08 10:06:04;;;;;;;4.57;3.53;;;;;;;28.11;36.69;102244.31;6101953;28;20245;-59
2021/06/08 10:09:26;;;;;;;4.00;3.38;;;;;;;27.45;37.54;102254.41;6088482;28;20260;-59
2021/06/08 10:12:55;;;;;;;3.15;2.90;;;;;;;27.75;37.48;102248.22;6089861;28;20224;-60
2021/06/08 10:16:24;;;;;;;5.97;3.53;;;;;;;27.44;37.72;102255.38;6088805;28;20658;-62
2021/06/08 10:19:45;;;;;;;2.88;2.67;;;;;;;28.34;37.19;102240.22;6079249;28;20244;-61
2021/06/08 10:23:19;;;;;;;4.20;3.13;;;;;;;28.23;36.59;102238.22;6079159;28;20244;-61
2021/06/08 10:26:45;;;;;;;3.35;3.10;;;;;;;28.31;37.01;102241.28;6082120;28;20244;-60
2021/06/08 10:30:08;;;;;;;3.03;2.83;;;;;;;28.47;36.80;102244.69;6083302;28;20331;-60
2021/06/08 10:33:29;;;;;;;3.95;3.03;;;;;;;28.78;35.80;102242.81;6085841;28;20240;-62
2021/06/08 10:36:49;;;;;;;4.28;3.28;;;;;;;28.41;35.58;102242.41;6085181;28;20659;-60
2021/06/08 10:40:10;;;;;;;4.00;2.70;;;;;;;28.84;36.02;102242.41;6086349;28;20254;-59
2021/06/08 10:43:37;;;;;;;3.45;2.70;;;;;;;28.27;34.31;102229.88;6090288;28;20240;-59
2021/06/08 10:47:01;;;;;;;6.78;3.75;;;;;;;28.45;35.09;102232.38;6087210;28;20236;-61
2021/06/08 10:50:23;;;;;;;3.08;2.78;;;;;;;28.93;34.29;102240.13;6088221;28;20563;-60
2021/06/08 10:53:46;;;;;;;4.60;2.75;;;;;;;27.94;35.03;102238.16;6083233;28;20228;-60
2021/06/08 10:57:13;;;;;;;3.40;2.88;;;;;;;28.01;34.85;102234.16;6080773;28;20719;-61
2021/06/08 11:01:26;;;;;;;3.10;2.60;;;;;;;28.43;34.89;102229.78;6080307;28;20240;-60
2021/06/08 11:04:50;;;;;;;2.13;1.95;;;;;;;28.93;34.76;102221.34;6078040;28;20237;-60
2021/06/08 11:08:11;;;;;;;3.20;2.63;;;;;;;28.78;34.08;102226.72;6087985;28;20509;-59
2021/06/08 11:11:46;;;;;;;3.05;2.80;;;;;;;28.66;34.50;102230.19;6079289;28;20236;-61
2021/06/08 11:15:20;;;;;;;3.08;2.70;;;;;;;27.71;34.20;102215.44;6087305;28;20236;-59
2021/06/08 11:18:42;;;;;;;3.90;3.05;;;;;;;28.05;34.52;102213.41;6086081;28;20248;-59
2021/06/08 11:22:04;;;;;;;4.20;2.90;;;;;;;28.94;33.40;102217.69;6081147;28;20315;-59
2021/06/08 11:25:45;;;;;;;5.13;3.10;;;;;;;28.56;34.36;102224.56;6081979;28;20233;-60
2021/06/08 11:29:05;;;;;;;3.17;2.72;;;;;;;28.11;34.50;102217.53;6086644;28;20568;-58
2021/06/08 11:32:45;;;;;;;3.75;2.65;;;;;;;28.03;34.92;102226.91;6086580;28;20237;-60
2021/06/08 11:36:32;;;;;;;3.05;2.67;;;;;;;26.50;35.38;102212.44;6083253;28;20621;-59
2021/06/08 11:39:54;;;;;;;6.75;5.03;;;;;;;28.48;34.68;102219.66;6081723;28;20607;-60
2021/06/08 11:43:53;;;;;;;6.05;3.45;;;;;;;29.04;33.96;102208.97;6082790;28;20232;-60
2021/06/08 11:47:15;;;;;;;2.55;2.35;;;;;;;28.13;34.19;102213.81;6083658;28;20233;-59
2021/06/08 11:50:41;;;;;;;2.72;2.53;;;;;;;27.87;33.61;102216.22;6083284;28;20646;-59
2021/06/08 11:54:05;;;;;;;3.20;2.30;;;;;;;27.96;34.22;102209.50;6084647;28;20240;-61
2021/06/08 11:57:36;;;;;;;4.40;2.85;;;;;;;27.70;33.97;102205.66;6083169;28;20232;-60
2021/06/08 12:00:57;;;;;;;3.50;2.53;;;;;;;28.30;33.67;102215.44;6079714;28;20240;-60
2021/06/08 12:04:18;;;;;;;2.40;2.20;;;;;;;28.43;33.80;102205.66;6080555;28;20355;-60
2021/06/08 12:07:44;;;;;;;4.80;2.47;;;;;;;29.27;31.32;102209.28;6080953;28;20320;-59
2021/06/08 12:11:13;;;;;;;2.13;1.83;;;;;;;29.76;31.04;102205.13;6085724;28;20236;-61
2021/06/08 12:14:35;;;;;;;2.97;2.50;;;;;;;29.35;31.74;102198.03;6082224;28;20611;-60
2021/06/08 12:18:02;;;;;;;3.03;2.50;;;;;;;28.90;31.92;102200.94;6083525;28;20682;-59
2021/06/08 12:21:23;;;;;;;3.22;3.03;;;;;;;28.94;30.82;102202.44;6078334;28;20236;-60
2021/06/08 12:24:51;;;;;;;3.15;2.85;;;;;;;29.09;32.11;102192.56;6082316;28;20240;-60
2021/06/08 12:28:12;;;;;;;3.80;2.65;;;;;;;29.60;31.18;102189.19;6079438;28;20563;-60
2021/06/08 12:31:35;;;;;;;2.85;2.65;;;;;;;29.79;31.01;102184.28;6081491;28;20228;-59
2021/06/08 12:34:56;;;;;;;3.30;3.00;;;;;;;29.82;31.06;102191.28;6076698;28;20235;-60
2021/06/08 12:38:20;;;;;;;3.38;3.08;;;;;;;30.56;31.33;102191.47;6080756;28;20286;-60
2021/06/08 12:41:41;;;;;;;3.75;2.35;;;;;;;30.74;30.40;102192.81;6081036;28;20232;-60
2021/06/08 12:45:01;;;;;;;5.75;2.28;;;;;;;31.28;29.11;102179.91;6088238;28;20232;-60
2021/06/08 12:48:23;;;;;;;3.13;2.60;;;;;;;30.85;28.98;102185.81;6085356;28;20240;-60
2021/06/08 12:51:46;;;;;;;3.15;2.60;;;;;;;30.93;29.39;102178.03;6085914;28;20236;-59
2021/06/08 12:55:14;;;;;;;2.88;2.58;;;;;;;31.12;29.22;102175.69;6077388;28;20236;-59
2021/06/08 12:58:36;;;;;;;2.97;2.45;;;;;;;31.24;26.85;102173.06;6081679;28;20626;-59
2021/06/08 13:01:57;;;;;;;3.72;2.53;;;;;;;31.06;27.08;102170.78;6083518;28;20232;-61
2021/06/08 13:05:21;;;;;;;2.60;2.40;;;;;;;31.24;27.22;102170.38;6087187;28;20228;-59
2021/06/08 13:08:42;;;;;;;2.35;1.80;;;;;;;31.03;27.51;102165.63;6094569;28;20229;-58
2021/06/08 13:12:08;;;;;;;2.47;1.90;;;;;;;29.77;28.72;102164.75;6090922;28;20607;-60
2021/06/08 13:15:30;;;;;;;2.22;2.03;;;;;;;29.41;28.85;102163.59;6086916;28;20240;-59
2021/06/08 13:18:50;;;;;;;2.47;2.28;;;;;;;30.42;28.17;102165.59;6084296;28;20614;-62
2021/06/08 13:22:15;;;;;;;2.55;2.22;;;;;;;29.41;28.64;102170.78;6075790;28;20785;-60
2021/06/08 13:25:35;;;;;;;2.42;1.23;;;;;;;33.33;23.98;102172.56;6088456;28;20221;-61
2021/06/08 13:28:57;;;;;;;4.68;1.92;;;;;;;35.90;20.36;102162.13;6086286;28;20607;-60
2021/06/08 13:32:26;;;;;;;1.95;1.52;;;;;;;35.97;19.72;102163.25;6091099;28;20232;-61
2021/06/08 13:35:52;;;;;;;1.77;1.67;;;;;;;36.34;20.40;102154.25;6089608;28;20224;-60
2021/06/08 13:39:17;;;;;;;1.98;1.85;;;;;;;34.94;19.54;102154.81;6082544;28;20244;-60
2021/06/08 13:42:39;;;;;;;1.60;1.50;;;;;;;34.90;20.02;102150.69;6090433;28;20592;-59
2021/06/08 13:46:10;;;;;;;1.63;1.52;;;;;;;34.43;20.87;102161.22;6090234;28;20236;-60
2021/06/08 13:49:43;;;;;;;2.58;2.38;;;;;;;34.36;21.16;102150.13;6086529;28;20281;-58
2021/06/08 13:53:04;;;;;;;1.20;1.10;;;;;;;34.11;21.02;102146.88;6090538;28;20264;-61
2021/06/08 13:56:34;;;;;;;1.25;1.25;;;;;;;34.06;22.34;102153.69;6091704;28;20236;-61
2021/06/08 14:03:36;;;;;;;2.80;1.48;;;;;;;32.85;23.86;102146.00;6083049;28;20232;-59
2021/06/08 14:06:57;;;;;;;2.22;0.95;;;;;;;32.88;22.04;102132.25;6086943;28;20240;-56
2021/06/08 14:10:19;;;;;;;1.50;1.40;;;;;;;32.46;23.11;102138.34;6080979;28;20232;-56
2021/06/08 14:13:42;;;;;;;1.80;1.63;;;;;;;32.07;22.37;102134.38;6083800;28;20323;-52
2021/06/08 14:17:11;;;;;;;2.50;2.30;;;;;;;31.90;22.91;102131.13;6081933;28;20240;-54
2021/06/08 14:20:32;;;;;;;1.55;1.45;;;;;;;31.01;22.05;102129.91;6076938;28;20717;-55
2021/06/08 14:23:55;;;;;;;3.50;1.90;;;;;;;31.80;23.71;102127.47;6084550;28;20237;-56
2021/06/08 14:27:18;;;;;;;1.83;1.30;;;;;;;31.73;22.30;102121.69;6090956;28;20259;-51
2021/06/08 14:30:39;;;;;;;1.10;1.00;;;;;;;31.03;23.44;102122.59;6091860;28;20529;-55
2021/06/08 14:34:00;;;;;;;1.73;1.63;;;;;;;30.02;23.28;102120.91;6079758;28;20249;-55
2021/06/08 14:37:21;;;;;;;1.85;1.45;;;;;;;30.80;23.11;102117.06;6080175;28;20260;-54
2021/06/08 14:40:41;;;;;;;1.60;1.33;;;;;;;30.77;23.64;102127.22;6077686;28;20240;-52
2021/06/08 14:44:02;;;;;;;1.33;1.23;;;;;;;31.27;22.94;102117.19;6084706;28;20228;-54
2021/06/08 14:47:23;;;;;;;1.60;1.45;;;;;;;31.52;23.31;102116.16;6082260;28;20225;-57
2021/06/08 14:50:44;;;;;;;2.30;2.10;;;;;;;32.16;22.13;102112.03;6076475;28;20228;-57
2021/06/08 14:54:05;;;;;;;3.92;1.70;;;;;;;31.21;22.43;102120.31;6079481;28;20323;-53
2021/06/08 14:57:26;;;;;;;2.17;1.40;;;;;;;31.61;23.23;102109.19;6086572;28;20346;-57
2021/06/08 15:00:47;;;;;;;1.52;1.38;;;;;;;31.46;22.76;102100.47;6077817;28;20626;-56
2021/06/08 15:04:08;;;;;;;1.55;1.45;;;;;;;30.73;23.23;102110.44;6064646;28;20232;-56
2021/06/08 15:07:29;;;;;;;2.28;1.20;;;;;;;31.17;23.21;102113.47;6079611;28;20233;-56
2021/06/08 15:10:49;;;;;;;1.40;1.30;;;;;;;31.54;23.04;102113.34;6069757;28;20255;-56
2021/06/08 15:14:10;;;;;;;1.17;0.98;;;;;;;31.65;23.16;102116.06;6086963;28;20315;-52
2021/06/08 15:17:30;;;;;;;4.47;1.35;;;;;;;31.63;22.50;102104.53;6078512;28;20503;-54
2021/06/08 15:20:52;;;;;;;1.52;1.25;;;;;;;31.94;21.47;102102.97;6080915;28;20240;-52
2021/06/08 15:24:12;;;;;;;1.33;1.10;;;;;;;31.83;22.24;102099.41;6082611;28;20240;-53
2021/06/08 15:27:35;;;;;;;1.08;1.00;;;;;;;32.29;22.32;102101.97;6077634;28;20607;-52
2021/06/08 15:30:56;;;;;;;1.42;1.20;;;;;;;32.36;22.22;102103.22;6078945;28;20240;-56
2021/06/08 15:34:17;;;;;;;1.80;1.48;;;;;;;31.98;21.35;102099.03;6079539;28;20573;-53
2021/06/08 15:37:39;;;;;;;1.40;1.30;;;;;;;31.97;22.29;102101.88;6090906;28;20252;-55
2021/06/08 15:40:59;;;;;;;1.80;1.30;;;;;;;32.28;23.57;102105.69;6078439;28;20240;-54
2021/06/08 15:44:20;;;;;;;1.38;1.27;;;;;;;32.05;23.21;102102.16;6075041;28;21018;-52
2021/06/08 15:47:40;;;;;;;2.50;1.40;;;;;;;32.29;21.23;102093.91;6080950;28;20244;-52